sensor_id;sensor_type;location;lat;lon;timestamp;temperature;humidity
18868;DHT22;9563;49.240;9.088;2023-03-24T00:00:45;13.30;99.90
18868;DHT22;9563;49.240;9.088;2023-03-24T00:03:12;13.40;99.90
18868;DHT22;9563;49.240;9.088;2023-03-24T00:05:41;13.40;99.90
18868;DHT22;9563;49.240;9.088;2023-03-24T00:08:10;13.40;99.90
18868;DHT22;9563;49.240;9.088;2023-03-24T00:10:37;13.40;99.90
18868;DHT22;9563;49.240;9.088;2023-03-24T00:13:04;13.50;99.90
18868;DHT22;9563;49.240;9.088;2023-03-24T00:15:31;13.50;99.90
18868;DHT22;9563;49.240;9.088;2023-03-24T00:17:58;13.50;99.90
18868;DHT22;9563;49.240;9.088;2023-03-24T00:20:26;13.60;99.90
18868;DHT22;9563;49.240;9.088;2023-03-24T00:22:54;13.60;99.90
18868;DHT22;9563;49.240;9.088;2023-03-24T00:25:26;13.70;99.90
18868;DHT22;9563;49.240;9.088;2023-03-24T00:27:54;13.70;99.90
18868;DHT22;9563;49.240;9.088;2023-03-24T00:30:22;13.70;99.90
18868;DHT22;9563;49.240;9.088;2023-03-24T00:32:50;13.70;99.90
18868;DHT22;9563;49.240;9.088;2023-03-24T00:35:18;13.70;99.90
18868;DHT22;9563;49.240;9.088;2023-03-24T00:37:45;13.70;99.90
18868;DHT22;9563;49.240;9.088;2023-03-24T00:40:16;13.70;99.90
18868;DHT22;9563;49.240;9.088;2023-03-24T00:42:45;13.80;99.90
18868;DHT22;9563;49.240;9.088;2023-03-24T00:45:14;13.70;99.90
18868;DHT22;9563;49.240;9.088;2023-03-24T00:47:42;13.70;99.90
18868;DHT22;9563;49.240;9.088;2023-03-24T00:50:13;13.80;99.90
18868;DHT22;9563;49.240;9.088;2023-03-24T00:52:40;13.80;99.90
18868;DHT22;9563;49.240;9.088;2023-03-24T00:55:13;13.80;99.90
18868;DHT22;9563;49.240;9.088;2023-03-24T00:57:42;13.80;99.90
18868;DHT22;9563;49.240;9.088;2023-03-24T01:00:21;13.70;99.90
18868;DHT22;9563;49.240;9.088;2023-03-24T01:02:50;13.70;99.90
18868;DHT22;9563;49.240;9.088;2023-03-24T01:05:18;13.70;99.90
18868;DHT22;9563;49.240;9.088;2023-03-24T01:07:45;13.60;99.90
18868;DHT22;9563;49.240;9.088;2023-03-24T01:10:17;13.60;99.90
18868;DHT22;9563;49.240;9.088;2023-03-24T01:12:46;13.60;99.90
18868;DHT22;9563;49.240;9.088;2023-03-24T01:15:16;13.50;99.90
18868;DHT22;9563;49.240;9.088;2023-03-24T01:17:43;13.50;99.90
18868;DHT22;9563;49.240;9.088;2023-03-24T01:20:11;13.50;99.90
18868;DHT22;9563;49.240;9.088;2023-03-24T01:22:40;13.50;99.90
18868;DHT22;9563;49.240;9.088;2023-03-24T01:25:11;13.50;99.90
18868;DHT22;9563;49.240;9.088;2023-03-24T01:27:41;13.50;99.90
18868;DHT22;9563;49.240;9.088;2023-03-24T01:30:10;13.50;99.90
18868;DHT22;9563;49.240;9.088;2023-03-24T01:32:39;13.40;99.90
18868;DHT22;9563;49.240;9.088;2023-03-24T01:35:06;13.40;99.90
18868;DHT22;9563;49.240;9.088;2023-03-24T01:37:33;13.40;99.90
18868;DHT22;9563;49.240;9.088;2023-03-24T01:40:00;13.40;99.90
18868;DHT22;9563;49.240;9.088;2023-03-24T01:42:31;13.40;99.90
18868;DHT22;9563;49.240;9.088;2023-03-24T01:45:00;13.40;99.90
18868;DHT22;9563;49.240;9.088;2023-03-24T01:47:28;13.40;99.90
18868;DHT22;9563;49.240;9.088;2023-03-24T01:49:59;13.40;99.90
18868;DHT22;9563;49.240;9.088;2023-03-24T01:52:32;13.50;99.90
18868;DHT22;9563;49.240;9.088;2023-03-24T01:55:06;13.40;99.90
18868;DHT22;9563;49.240;9.088;2023-03-24T01:57:37;13.40;99.90
18868;DHT22;9563;49.240;9.088;2023-03-24T02:00:08;13.50;99.90
18868;DHT22;9563;49.240;9.088;2023-03-24T02:02:37;13.50;99.90
18868;DHT22;9563;49.240;9.088;2023-03-24T02:05:08;13.60;99.90
18868;DHT22;9563;49.240;9.088;2023-03-24T02:07:39;13.60;99.90
18868;DHT22;9563;49.240;9.088;2023-03-24T02:10:10;13.60;99.90
18868;DHT22;9563;49.240;9.088;2023-03-24T02:12:38;13.70;99.90
18868;DHT22;9563;49.240;9.088;2023-03-24T02:15:07;13.60;99.90
18868;DHT22;9563;49.240;9.088;2023-03-24T02:17:48;13.60;99.90
18868;DHT22;9563;49.240;9.088;2023-03-24T02:23:51;13.60;99.90
18868;DHT22;9563;49.240;9.088;2023-03-24T02:26:41;13.70;99.90
18868;DHT22;9563;49.240;9.088;2023-03-24T02:34:59;13.70;99.90
18868;DHT22;9563;49.240;9.088;2023-03-24T02:37:45;13.70;99.90
18868;DHT22;9563;49.240;9.088;2023-03-24T02:40:27;13.70;99.90
18868;DHT22;9563;49.240;9.088;2023-03-24T02:43:09;13.70;99.90
18868;DHT22;9563;49.240;9.088;2023-03-24T02:45:46;13.70;99.90
18868;DHT22;9563;49.240;9.088;2023-03-24T02:48:24;13.70;99.90
18868;DHT22;9563;49.240;9.088;2023-03-24T02:50:57;13.70;99.90
18868;DHT22;9563;49.240;9.088;2023-03-24T02:53:33;13.70;99.90
18868;DHT22;9563;49.240;9.088;2023-03-24T02:56:10;13.70;99.90
18868;DHT22;9563;49.240;9.088;2023-03-24T02:58:41;13.70;99.90
18868;DHT22;9563;49.240;9.088;2023-03-24T03:01:15;13.70;99.90
18868;DHT22;9563;49.240;9.088;2023-03-24T03:03:46;13.70;99.90
18868;DHT22;9563;49.240;9.088;2023-03-24T03:06:17;13.80;99.90
18868;DHT22;9563;49.240;9.088;2023-03-24T03:08:47;13.80;99.90
18868;DHT22;9563;49.240;9.088;2023-03-24T03:11:16;13.80;99.90
18868;DHT22;9563;49.240;9.088;2023-03-24T03:13:48;13.80;99.90
18868;DHT22;9563;49.240;9.088;2023-03-24T03:16:20;13.80;99.90
18868;DHT22;9563;49.240;9.088;2023-03-24T03:18:54;13.80;99.90
18868;DHT22;9563;49.240;9.088;2023-03-24T03:21:24;13.80;99.90
18868;DHT22;9563;49.240;9.088;2023-03-24T03:23:56;13.80;99.90
18868;DHT22;9563;49.240;9.088;2023-03-24T03:26:26;13.90;99.90
18868;DHT22;9563;49.240;9.088;2023-03-24T03:28:59;13.90;99.90
18868;DHT22;9563;49.240;9.088;2023-03-24T03:31:31;13.80;99.90
18868;DHT22;9563;49.240;9.088;2023-03-24T03:34:06;13.90;99.90
18868;DHT22;9563;49.240;9.088;2023-03-24T03:36:40;13.90;99.90
18868;DHT22;9563;49.240;9.088;2023-03-24T03:39:15;13.80;99.90
18868;DHT22;9563;49.240;9.088;2023-03-24T03:41:45;13.90;99.90
18868;DHT22;9563;49.240;9.088;2023-03-24T03:44:13;13.90;99.90
18868;DHT22;9563;49.240;9.088;2023-03-24T03:46:40;13.80;99.90
18868;DHT22;9563;49.240;9.088;2023-03-24T03:49:08;13.90;99.90
18868;DHT22;9563;49.240;9.088;2023-03-24T03:51:35;13.80;99.90
18868;DHT22;9563;49.240;9.088;2023-03-24T03:54:04;13.80;99.90
18868;DHT22;9563;49.240;9.088;2023-03-24T03:56:35;13.80;99.90
18868;DHT22;9563;49.240;9.088;2023-03-24T03:59:03;13.70;99.90
18868;DHT22;9563;49.240;9.088;2023-03-24T04:01:33;13.80;99.90
18868;DHT22;9563;49.240;9.088;2023-03-24T04:04:10;13.70;99.90
18868;DHT22;9563;49.240;9.088;2023-03-24T04:06:49;13.70;99.90
18868;DHT22;9563;49.240;9.088;2023-03-24T04:09:32;13.60;99.90
18868;DHT22;9563;49.240;9.088;2023-03-24T04:12:20;13.70;99.90
18868;DHT22;9563;49.240;9.088;2023-03-24T04:15:25;13.70;99.90
18868;DHT22;9563;49.240;9.088;2023-03-24T04:18:17;13.70;99.90
18868;DHT22;9563;49.240;9.088;2023-03-24T04:20:49;13.80;99.90
18868;DHT22;9563;49.240;9.088;2023-03-24T04:23:26;13.90;99.90
18868;DHT22;9563;49.240;9.088;2023-03-24T04:26:03;14.00;99.90
18868;DHT22;9563;49.240;9.088;2023-03-24T04:28:38;14.10;99.90
18868;DHT22;9563;49.240;9.088;2023-03-24T04:31:13;14.20;99.90
18868;DHT22;9563;49.240;9.088;2023-03-24T04:33:47;14.20;99.90
18868;DHT22;9563;49.240;9.088;2023-03-24T04:36:21;14.00;99.90
18868;DHT22;9563;49.240;9.088;2023-03-24T04:38:53;14.00;99.90
18868;DHT22;9563;49.240;9.088;2023-03-24T04:41:23;13.90;99.90
18868;DHT22;9563;49.240;9.088;2023-03-24T04:43:51;13.80;99.90
18868;DHT22;9563;49.240;9.088;2023-03-24T04:46:21;13.70;99.90
18868;DHT22;9563;49.240;9.088;2023-03-24T04:48:48;13.60;99.90
18868;DHT22;9563;49.240;9.088;2023-03-24T04:51:16;13.50;99.90
18868;DHT22;9563;49.240;9.088;2023-03-24T04:53:43;13.40;99.90
18868;DHT22;9563;49.240;9.088;2023-03-24T04:56:26;13.30;99.90
18868;DHT22;9563;49.240;9.088;2023-03-24T04:58:54;13.30;99.90
18868;DHT22;9563;49.240;9.088;2023-03-24T05:01:24;13.30;99.90
18868;DHT22;9563;49.240;9.088;2023-03-24T05:03:55;13.20;99.90
18868;DHT22;9563;49.240;9.088;2023-03-24T05:06:22;13.20;99.90
18868;DHT22;9563;49.240;9.088;2023-03-24T05:08:49;13.10;99.90
18868;DHT22;9563;49.240;9.088;2023-03-24T05:11:18;13.00;99.90
18868;DHT22;9563;49.240;9.088;2023-03-24T05:13:45;12.90;99.90
18868;DHT22;9563;49.240;9.088;2023-03-24T05:16:13;12.90;99.90
18868;DHT22;9563;49.240;9.088;2023-03-24T05:18:42;12.80;99.90
18868;DHT22;9563;49.240;9.088;2023-03-24T05:21:09;12.80;99.90
18868;DHT22;9563;49.240;9.088;2023-03-24T05:23:36;12.70;99.90
18868;DHT22;9563;49.240;9.088;2023-03-24T05:26:03;12.70;99.90
18868;DHT22;9563;49.240;9.088;2023-03-24T05:28:30;12.60;99.90
18868;DHT22;9563;49.240;9.088;2023-03-24T05:30:57;12.60;99.90
18868;DHT22;9563;49.240;9.088;2023-03-24T05:33:24;12.60;99.90
18868;DHT22;9563;49.240;9.088;2023-03-24T05:35:53;12.50;99.90
18868;DHT22;9563;49.240;9.088;2023-03-24T05:38:20;12.40;99.90
18868;DHT22;9563;49.240;9.088;2023-03-24T05:40:46;12.40;99.90
18868;DHT22;9563;49.240;9.088;2023-03-24T05:43:13;12.40;99.90
18868;DHT22;9563;49.240;9.088;2023-03-24T05:45:40;12.40;99.90
18868;DHT22;9563;49.240;9.088;2023-03-24T05:48:07;12.40;99.90
18868;DHT22;9563;49.240;9.088;2023-03-24T05:50:34;12.40;99.90
18868;DHT22;9563;49.240;9.088;2023-03-24T05:53:02;12.30;99.90
18868;DHT22;9563;49.240;9.088;2023-03-24T05:55:29;12.20;99.90
18868;DHT22;9563;49.240;9.088;2023-03-24T05:57:56;12.20;99.90
18868;DHT22;9563;49.240;9.088;2023-03-24T06:00:26;12.20;99.90
18868;DHT22;9563;49.240;9.088;2023-03-24T06:02:53;12.20;99.90
18868;DHT22;9563;49.240;9.088;2023-03-24T06:05:21;12.10;99.90
18868;DHT22;9563;49.240;9.088;2023-03-24T06:07:48;12.20;99.90
18868;DHT22;9563;49.240;9.088;2023-03-24T06:10:16;12.20;99.90
18868;DHT22;9563;49.240;9.088;2023-03-24T06:12:44;12.20;99.90
18868;DHT22;9563;49.240;9.088;2023-03-24T06:15:11;12.20;99.90
18868;DHT22;9563;49.240;9.088;2023-03-24T06:17:42;12.20;99.90
18868;DHT22;9563;49.240;9.088;2023-03-24T06:20:11;12.20;99.90
18868;DHT22;9563;49.240;9.088;2023-03-24T06:22:41;12.20;99.90
18868;DHT22;9563;49.240;9.088;2023-03-24T06:25:10;12.20;99.90
18868;DHT22;9563;49.240;9.088;2023-03-24T06:27:41;12.20;99.90
18868;DHT22;9563;49.240;9.088;2023-03-24T06:30:12;12.20;99.90
18868;DHT22;9563;49.240;9.088;2023-03-24T06:32:40;12.20;99.90
18868;DHT22;9563;49.240;9.088;2023-03-24T06:35:08;12.20;99.90
18868;DHT22;9563;49.240;9.088;2023-03-24T06:37:35;12.20;99.90
18868;DHT22;9563;49.240;9.088;2023-03-24T06:40:02;12.20;99.90
18868;DHT22;9563;49.240;9.088;2023-03-24T06:42:32;12.20;99.90
18868;DHT22;9563;49.240;9.088;2023-03-24T06:45:01;12.30;99.90
18868;DHT22;9563;49.240;9.088;2023-03-24T06:47:28;12.30;99.90
18868;DHT22;9563;49.240;9.088;2023-03-24T06:49:55;12.30;99.90
18868;DHT22;9563;49.240;9.088;2023-03-24T06:52:22;12.30;99.90
18868;DHT22;9563;49.240;9.088;2023-03-24T06:54:52;12.30;99.90
18868;DHT22;9563;49.240;9.088;2023-03-24T06:57:19;12.30;99.90
18868;DHT22;9563;49.240;9.088;2023-03-24T06:59:46;12.40;99.90
18868;DHT22;9563;49.240;9.088;2023-03-24T07:02:14;12.30;99.90
18868;DHT22;9563;49.240;9.088;2023-03-24T07:04:41;12.40;99.90
18868;DHT22;9563;49.240;9.088;2023-03-24T07:07:10;12.40;99.90
18868;DHT22;9563;49.240;9.088;2023-03-24T07:09:37;12.40;99.90
18868;DHT22;9563;49.240;9.088;2023-03-24T07:12:05;12.40;99.90
18868;DHT22;9563;49.240;9.088;2023-03-24T07:14:32;12.30;99.90
18868;DHT22;9563;49.240;9.088;2023-03-24T07:16:59;12.40;99.90
18868;DHT22;9563;49.240;9.088;2023-03-24T07:19:28;12.40;99.90
18868;DHT22;9563;49.240;9.088;2023-03-24T07:21:56;12.50;99.90
18868;DHT22;9563;49.240;9.088;2023-03-24T07:24:23;12.50;99.90
18868;DHT22;9563;49.240;9.088;2023-03-24T07:26:50;12.50;99.90
18868;DHT22;9563;49.240;9.088;2023-03-24T07:29:17;12.60;99.90
18868;DHT22;9563;49.240;9.088;2023-03-24T07:31:44;12.60;99.90
18868;DHT22;9563;49.240;9.088;2023-03-24T07:34:13;12.60;99.90
18868;DHT22;9563;49.240;9.088;2023-03-24T07:36:41;12.60;99.90
18868;DHT22;9563;49.240;9.088;2023-03-24T07:39:08;12.60;99.90
18868;DHT22;9563;49.240;9.088;2023-03-24T07:41:35;12.70;99.90
18868;DHT22;9563;49.240;9.088;2023-03-24T07:44:02;12.70;99.90
18868;DHT22;9563;49.240;9.088;2023-03-24T07:46:29;12.70;99.90
18868;DHT22;9563;49.240;9.088;2023-03-24T07:48:56;12.70;99.90
18868;DHT22;9563;49.240;9.088;2023-03-24T07:51:23;12.70;99.90
18868;DHT22;9563;49.240;9.088;2023-03-24T07:53:51;12.70;99.90
18868;DHT22;9563;49.240;9.088;2023-03-24T07:56:18;12.70;99.90
18868;DHT22;9563;49.240;9.088;2023-03-24T07:58:45;12.70;99.90
18868;DHT22;9563;49.240;9.088;2023-03-24T08:01:12;12.70;99.90
18868;DHT22;9563;49.240;9.088;2023-03-24T08:03:39;12.70;99.90
18868;DHT22;9563;49.240;9.088;2023-03-24T08:06:06;12.70;99.90
18868;DHT22;9563;49.240;9.088;2023-03-24T08:08:34;12.80;99.90
18868;DHT22;9563;49.240;9.088;2023-03-24T08:11:03;12.70;99.90
18868;DHT22;9563;49.240;9.088;2023-03-24T08:13:30;12.80;99.90
18868;DHT22;9563;49.240;9.088;2023-03-24T08:15:57;12.90;99.90
18868;DHT22;9563;49.240;9.088;2023-03-24T08:18:24;13.00;99.90
18868;DHT22;9563;49.240;9.088;2023-03-24T08:20:55;13.00;99.90
18868;DHT22;9563;49.240;9.088;2023-03-24T08:23:23;13.10;99.90
18868;DHT22;9563;49.240;9.088;2023-03-24T08:25:50;13.10;99.90
18868;DHT22;9563;49.240;9.088;2023-03-24T08:28:19;13.20;99.90
18868;DHT22;9563;49.240;9.088;2023-03-24T08:30:46;13.20;99.90
18868;DHT22;9563;49.240;9.088;2023-03-24T08:33:14;13.30;99.90
18868;DHT22;9563;49.240;9.088;2023-03-24T08:35:42;13.30;99.90
18868;DHT22;9563;49.240;9.088;2023-03-24T08:38:10;13.40;99.90
18868;DHT22;9563;49.240;9.088;2023-03-24T08:40:40;13.40;99.90
18868;DHT22;9563;49.240;9.088;2023-03-24T08:43:08;13.40;99.90
18868;DHT22;9563;49.240;9.088;2023-03-24T08:45:38;13.40;99.90
18868;DHT22;9563;49.240;9.088;2023-03-24T08:48:07;13.40;99.90
18868;DHT22;9563;49.240;9.088;2023-03-24T08:50:37;13.40;99.90
18868;DHT22;9563;49.240;9.088;2023-03-24T08:53:04;13.30;99.90
18868;DHT22;9563;49.240;9.088;2023-03-24T08:55:31;13.30;99.90
18868;DHT22;9563;49.240;9.088;2023-03-24T08:57:58;13.30;99.90
18868;DHT22;9563;49.240;9.088;2023-03-24T09:00:25;13.20;99.90
18868;DHT22;9563;49.240;9.088;2023-03-24T09:02:55;13.30;99.90
18868;DHT22;9563;49.240;9.088;2023-03-24T09:05:23;13.30;99.90
18868;DHT22;9563;49.240;9.088;2023-03-24T09:07:51;13.30;99.90
18868;DHT22;9563;49.240;9.088;2023-03-24T09:10:19;13.20;99.90
18868;DHT22;9563;49.240;9.088;2023-03-24T09:12:47;13.20;99.90
18868;DHT22;9563;49.240;9.088;2023-03-24T09:15:14;13.20;99.90
18868;DHT22;9563;49.240;9.088;2023-03-24T09:17:41;13.20;99.90
18868;DHT22;9563;49.240;9.088;2023-03-24T09:20:12;13.30;99.90
18868;DHT22;9563;49.240;9.088;2023-03-24T09:22:42;13.30;99.90
18868;DHT22;9563;49.240;9.088;2023-03-24T09:25:11;13.20;99.90
18868;DHT22;9563;49.240;9.088;2023-03-24T09:27:38;13.20;99.90
18868;DHT22;9563;49.240;9.088;2023-03-24T09:30:07;13.30;99.90
18868;DHT22;9563;49.240;9.088;2023-03-24T09:32:34;13.30;99.90
18868;DHT22;9563;49.240;9.088;2023-03-24T09:35:01;13.30;99.90
18868;DHT22;9563;49.240;9.088;2023-03-24T09:37:29;13.40;99.90
18868;DHT22;9563;49.240;9.088;2023-03-24T09:39:56;13.40;99.90
18868;DHT22;9563;49.240;9.088;2023-03-24T09:42:28;13.40;99.90
18868;DHT22;9563;49.240;9.088;2023-03-24T09:44:57;13.50;99.90
18868;DHT22;9563;49.240;9.088;2023-03-24T09:47:27;13.50;99.90
18868;DHT22;9563;49.240;9.088;2023-03-24T09:49:56;13.50;99.90
18868;DHT22;9563;49.240;9.088;2023-03-24T09:52:30;13.50;99.90
18868;DHT22;9563;49.240;9.088;2023-03-24T09:54:59;13.50;99.90
18868;DHT22;9563;49.240;9.088;2023-03-24T09:57:31;13.50;99.90
18868;DHT22;9563;49.240;9.088;2023-03-24T10:00:04;13.50;99.90
18868;DHT22;9563;49.240;9.088;2023-03-24T10:02:35;13.50;99.90
18868;DHT22;9563;49.240;9.088;2023-03-24T10:05:12;13.50;99.90
18868;DHT22;9563;49.240;9.088;2023-03-24T10:07:44;13.30;99.90
18868;DHT22;9563;49.240;9.088;2023-03-24T10:10:20;13.30;99.90
18868;DHT22;9563;49.240;9.088;2023-03-24T10:12:50;13.30;99.90
18868;DHT22;9563;49.240;9.088;2023-03-24T10:15:23;13.30;99.90
18868;DHT22;9563;49.240;9.088;2023-03-24T10:17:57;13.30;99.90
18868;DHT22;9563;49.240;9.088;2023-03-24T10:20:33;13.40;99.90
18868;DHT22;9563;49.240;9.088;2023-03-24T10:23:16;13.50;99.90
18868;DHT22;9563;49.240;9.088;2023-03-24T10:25:50;13.50;99.90
18868;DHT22;9563;49.240;9.088;2023-03-24T10:28:19;13.50;99.90
18868;DHT22;9563;49.240;9.088;2023-03-24T10:30:47;13.60;99.90
18868;DHT22;9563;49.240;9.088;2023-03-24T10:33:16;13.60;99.90
18868;DHT22;9563;49.240;9.088;2023-03-24T10:35:49;13.60;99.90
18868;DHT22;9563;49.240;9.088;2023-03-24T10:38:21;13.60;99.90
18868;DHT22;9563;49.240;9.088;2023-03-24T10:40:49;13.60;99.90
18868;DHT22;9563;49.240;9.088;2023-03-24T10:43:16;13.60;99.90
18868;DHT22;9563;49.240;9.088;2023-03-24T10:45:46;13.60;99.90
18868;DHT22;9563;49.240;9.088;2023-03-24T10:48:33;13.60;99.90
18868;DHT22;9563;49.240;9.088;2023-03-24T10:51:00;13.50;99.90
18868;DHT22;9563;49.240;9.088;2023-03-24T10:53:28;13.50;99.90
18868;DHT22;9563;49.240;9.088;2023-03-24T10:55:55;13.50;99.90
18868;DHT22;9563;49.240;9.088;2023-03-24T10:58:28;13.40;99.90
18868;DHT22;9563;49.240;9.088;2023-03-24T11:00:56;13.40;99.90
18868;DHT22;9563;49.240;9.088;2023-03-24T11:03:27;13.30;99.90
18868;DHT22;9563;49.240;9.088;2023-03-24T11:05:57;13.20;99.90
18868;DHT22;9563;49.240;9.088;2023-03-24T11:08:31;13.20;99.90
18868;DHT22;9563;49.240;9.088;2023-03-24T11:10:58;13.10;99.90
18868;DHT22;9563;49.240;9.088;2023-03-24T11:13:29;13.10;99.90
18868;DHT22;9563;49.240;9.088;2023-03-24T11:16:04;13.00;99.90
18868;DHT22;9563;49.240;9.088;2023-03-24T11:18:32;13.00;99.90
18868;DHT22;9563;49.240;9.088;2023-03-24T11:21:01;13.00;99.90
18868;DHT22;9563;49.240;9.088;2023-03-24T11:23:32;13.00;99.90
18868;DHT22;9563;49.240;9.088;2023-03-24T11:26:08;13.00;99.90
18868;DHT22;9563;49.240;9.088;2023-03-24T11:28:39;13.10;99.90
18868;DHT22;9563;49.240;9.088;2023-03-24T11:31:08;13.20;99.90
18868;DHT22;9563;49.240;9.088;2023-03-24T11:33:43;13.30;99.90
18868;DHT22;9563;49.240;9.088;2023-03-24T11:36:35;13.40;99.90
18868;DHT22;9563;49.240;9.088;2023-03-24T11:39:10;13.40;99.90
18868;DHT22;9563;49.240;9.088;2023-03-24T11:41:40;13.50;99.90
18868;DHT22;9563;49.240;9.088;2023-03-24T11:44:16;13.50;99.90
18868;DHT22;9563;49.240;9.088;2023-03-24T11:46:44;13.50;99.90
18868;DHT22;9563;49.240;9.088;2023-03-24T11:49:14;13.50;99.90
18868;DHT22;9563;49.240;9.088;2023-03-24T11:51:44;13.50;99.90
18868;DHT22;9563;49.240;9.088;2023-03-24T11:54:16;13.50;99.90
18868;DHT22;9563;49.240;9.088;2023-03-24T11:56:45;13.50;99.90
18868;DHT22;9563;49.240;9.088;2023-03-24T11:59:20;13.60;99.90
18868;DHT22;9563;49.240;9.088;2023-03-24T12:01:53;13.60;99.90
18868;DHT22;9563;49.240;9.088;2023-03-24T12:04:32;13.70;99.90
18868;DHT22;9563;49.240;9.088;2023-03-24T12:07:22;13.80;99.90
18868;DHT22;9563;49.240;9.088;2023-03-24T12:09:59;13.90;99.90
18868;DHT22;9563;49.240;9.088;2023-03-24T12:12:35;13.90;99.90
18868;DHT22;9563;49.240;9.088;2023-03-24T12:15:21;13.90;99.90
18868;DHT22;9563;49.240;9.088;2023-03-24T12:17:58;13.80;99.90
18868;DHT22;9563;49.240;9.088;2023-03-24T12:20:29;13.70;99.90
18868;DHT22;9563;49.240;9.088;2023-03-24T12:22:59;13.30;99.90
18868;DHT22;9563;49.240;9.088;2023-03-24T12:25:51;13.00;99.90
18868;DHT22;9563;49.240;9.088;2023-03-24T12:28:38;12.80;99.90
18868;DHT22;9563;49.240;9.088;2023-03-24T12:31:20;12.30;99.90
18868;DHT22;9563;49.240;9.088;2023-03-24T12:33:57;12.00;99.90
18868;DHT22;9563;49.240;9.088;2023-03-24T12:36:41;11.80;99.90
18868;DHT22;9563;49.240;9.088;2023-03-24T12:39:13;11.70;99.90
18868;DHT22;9563;49.240;9.088;2023-03-24T12:42:08;11.60;99.90
18868;DHT22;9563;49.240;9.088;2023-03-24T12:45:06;11.50;99.90
18868;DHT22;9563;49.240;9.088;2023-03-24T12:48:02;11.50;99.90
18868;DHT22;9563;49.240;9.088;2023-03-24T12:50:42;11.60;99.90
18868;DHT22;9563;49.240;9.088;2023-03-24T12:53:25;11.60;99.90
18868;DHT22;9563;49.240;9.088;2023-03-24T12:55:59;11.50;99.90
18868;DHT22;9563;49.240;9.088;2023-03-24T12:58:38;11.50;99.90
18868;DHT22;9563;49.240;9.088;2023-03-24T13:01:12;11.50;99.90
18868;DHT22;9563;49.240;9.088;2023-03-24T13:03:44;11.50;99.90
18868;DHT22;9563;49.240;9.088;2023-03-24T13:06:18;11.50;99.90
18868;DHT22;9563;49.240;9.088;2023-03-24T13:08:55;11.50;99.90
18868;DHT22;9563;49.240;9.088;2023-03-24T13:11:33;11.50;99.90
18868;DHT22;9563;49.240;9.088;2023-03-24T13:14:11;11.40;99.90
18868;DHT22;9563;49.240;9.088;2023-03-24T13:16:39;11.30;99.90
18868;DHT22;9563;49.240;9.088;2023-03-24T13:19:11;11.20;99.90
18868;DHT22;9563;49.240;9.088;2023-03-24T13:21:40;11.20;99.90
18868;DHT22;9563;49.240;9.088;2023-03-24T13:24:11;11.20;99.90
18868;DHT22;9563;49.240;9.088;2023-03-24T13:26:39;11.20;99.90
18868;DHT22;9563;49.240;9.088;2023-03-24T13:29:15;11.20;99.90
18868;DHT22;9563;49.240;9.088;2023-03-24T13:31:51;11.20;99.90
18868;DHT22;9563;49.240;9.088;2023-03-24T13:34:24;11.20;99.90
18868;DHT22;9563;49.240;9.088;2023-03-24T13:36:56;11.20;99.90
18868;DHT22;9563;49.240;9.088;2023-03-24T13:39:26;11.30;99.90
18868;DHT22;9563;49.240;9.088;2023-03-24T13:41:56;11.30;99.90
18868;DHT22;9563;49.240;9.088;2023-03-24T13:44:27;11.30;99.90
18868;DHT22;9563;49.240;9.088;2023-03-24T13:47:04;11.40;99.90
18868;DHT22;9563;49.240;9.088;2023-03-24T13:49:32;11.40;99.90
18868;DHT22;9563;49.240;9.088;2023-03-24T13:52:02;11.50;99.90
18868;DHT22;9563;49.240;9.088;2023-03-24T13:54:31;11.60;99.90
18868;DHT22;9563;49.240;9.088;2023-03-24T13:57:04;11.60;99.90
18868;DHT22;9563;49.240;9.088;2023-03-24T13:59:39;11.60;99.90
18868;DHT22;9563;49.240;9.088;2023-03-24T14:02:18;11.50;99.90
18868;DHT22;9563;49.240;9.088;2023-03-24T14:04:46;11.60;99.90
18868;DHT22;9563;49.240;9.088;2023-03-24T14:07:29;11.70;99.90
18868;DHT22;9563;49.240;9.088;2023-03-24T14:09:59;11.70;99.90
18868;DHT22;9563;49.240;9.088;2023-03-24T14:12:27;11.70;99.90
18868;DHT22;9563;49.240;9.088;2023-03-24T14:15:16;11.70;99.90
18868;DHT22;9563;49.240;9.088;2023-03-24T14:17:45;11.60;99.90
18868;DHT22;9563;49.240;9.088;2023-03-24T14:20:27;11.50;99.90
18868;DHT22;9563;49.240;9.088;2023-03-24T14:22:55;11.50;99.90
18868;DHT22;9563;49.240;9.088;2023-03-24T14:25:24;11.50;99.90
18868;DHT22;9563;49.240;9.088;2023-03-24T14:27:53;11.60;99.90
18868;DHT22;9563;49.240;9.088;2023-03-24T14:30:24;11.60;99.90
18868;DHT22;9563;49.240;9.088;2023-03-24T14:32:56;11.70;99.90
18868;DHT22;9563;49.240;9.088;2023-03-24T14:35:34;11.80;99.90
18868;DHT22;9563;49.240;9.088;2023-03-24T14:38:03;11.90;99.90
18868;DHT22;9563;49.240;9.088;2023-03-24T14:40:34;12.00;99.90
18868;DHT22;9563;49.240;9.088;2023-03-24T14:43:17;11.90;99.90
18868;DHT22;9563;49.240;9.088;2023-03-24T14:46:00;11.90;99.90
18868;DHT22;9563;49.240;9.088;2023-03-24T14:48:52;12.00;99.90
18868;DHT22;9563;49.240;9.088;2023-03-24T14:51:31;12.00;99.90
18868;DHT22;9563;49.240;9.088;2023-03-24T14:54:04;12.00;99.90
18868;DHT22;9563;49.240;9.088;2023-03-24T14:56:35;12.00;99.90
18868;DHT22;9563;49.240;9.088;2023-03-24T14:59:07;12.00;99.90
18868;DHT22;9563;49.240;9.088;2023-03-24T15:01:40;11.90;99.90
18868;DHT22;9563;49.240;9.088;2023-03-24T15:04:10;11.90;99.90
18868;DHT22;9563;49.240;9.088;2023-03-24T15:06:43;11.90;99.90
18868;DHT22;9563;49.240;9.088;2023-03-24T15:09:12;12.00;99.90
18868;DHT22;9563;49.240;9.088;2023-03-24T15:11:40;11.90;99.90
18868;DHT22;9563;49.240;9.088;2023-03-24T15:14:16;12.00;99.90
18868;DHT22;9563;49.240;9.088;2023-03-24T15:16:51;12.10;99.90
18868;DHT22;9563;49.240;9.088;2023-03-24T15:19:20;12.10;99.90
18868;DHT22;9563;49.240;9.088;2023-03-24T15:21:49;12.10;99.90
18868;DHT22;9563;49.240;9.088;2023-03-24T15:24:25;12.20;99.90
18868;DHT22;9563;49.240;9.088;2023-03-24T15:26:54;12.20;99.90
18868;DHT22;9563;49.240;9.088;2023-03-24T15:29:21;12.20;99.90
18868;DHT22;9563;49.240;9.088;2023-03-24T15:31:51;12.20;99.90
18868;DHT22;9563;49.240;9.088;2023-03-24T15:34:26;12.30;99.90
18868;DHT22;9563;49.240;9.088;2023-03-24T15:36:55;12.30;99.90
18868;DHT22;9563;49.240;9.088;2023-03-24T15:39:25;12.40;99.90
18868;DHT22;9563;49.240;9.088;2023-03-24T15:41:52;12.30;99.90
18868;DHT22;9563;49.240;9.088;2023-03-24T15:44:23;12.30;99.90
18868;DHT22;9563;49.240;9.088;2023-03-24T15:46:54;12.30;99.90
18868;DHT22;9563;49.240;9.088;2023-03-24T15:49:25;12.30;99.90
18868;DHT22;9563;49.240;9.088;2023-03-24T15:51:56;12.50;99.90
18868;DHT22;9563;49.240;9.088;2023-03-24T15:54:25;12.70;99.90
18868;DHT22;9563;49.240;9.088;2023-03-24T15:57:09;12.70;99.90
18868;DHT22;9563;49.240;9.088;2023-03-24T15:59:43;12.90;99.90
18868;DHT22;9563;49.240;9.088;2023-03-24T16:02:21;12.90;99.90
18868;DHT22;9563;49.240;9.088;2023-03-24T16:04:49;12.80;99.90
18868;DHT22;9563;49.240;9.088;2023-03-24T16:07:25;12.80;99.90
18868;DHT22;9563;49.240;9.088;2023-03-24T16:09:56;12.80;99.90
18868;DHT22;9563;49.240;9.088;2023-03-24T16:12:31;12.80;99.90
18868;DHT22;9563;49.240;9.088;2023-03-24T16:14:59;12.70;99.90
18868;DHT22;9563;49.240;9.088;2023-03-24T16:17:27;12.70;99.90
18868;DHT22;9563;49.240;9.088;2023-03-24T16:19:54;12.80;99.90